Time;durP1;ratioP1;P1;durP2;ratioP2;P2;SDS_P1;SDS_P2;PMS_P1;PMS_P2;Temp;Humidity;BMP_temperature;BMP_pressure;BME280_temperature;BME280_humidity;BME280_pressure;Samples;Min_cycle;Max_cycle;Signal;HPM_P1;HPM_P2
2023/01/22 00:00:55;;;;;;;;;35.25;31.25;;;;;1.69;60.74;102527.75;5032800;28;45420;-61
2023/01/22 00:03:21;;;;;;;;;32.50;30.00;;;;;1.80;60.84;102540.53;5010608;28;46740;-60
2023/01/22 00:05:46;;;;;;;;;36.50;33.25;;;;;1.64;60.45;102513.69;5011585;28;45456;-61
2023/01/22 00:08:12;;;;;;;;;42.50;34.50;;;;;1.69;60.57;102527.75;5012325;28;45633;-60
2023/01/22 00:10:37;;;;;;;;;45.75;36.00;;;;;1.90;60.85;102540.72;5028217;28;45409;-60
2023/01/22 00:13:03;;;;;;;;;43.50;40.50;;;;;1.88;60.46;102543.53;5031693;28;45491;-60
2023/01/22 00:15:28;;;;;;;;;41.75;33.00;;;;;1.91;59.91;102544.31;5014937;28;45709;-61
2023/01/22 00:17:54;;;;;;;;;44.75;32.50;;;;;1.63;60.11;102501.13;5010383;28;45835;-60
2023/01/22 00:20:19;;;;;;;;;48.00;37.75;;;;;1.87;60.16;102536.41;5027789;28;45384;-59
2023/01/22 00:22:45;;;;;;;;;42.50;37.00;;;;;1.83;60.45;102532.19;5027209;28;45865;-60
2023/01/22 00:25:11;;;;;;;;;43.50;36.25;;;;;1.69;59.65;102506.09;5017060;28;45383;-58
2023/01/22 00:27:37;;;;;;;;;46.60;35.40;;;;;1.88;60.04;102540.84;5011962;28;45964;-62
2023/01/22 00:30:03;;;;;;;;;52.50;42.75;;;;;1.85;60.40;102538.38;5027147;28;45866;-59
2023/01/22 00:32:29;;;;;;;;;40.40;36.80;;;;;1.92;60.13;102538.78;5042186;28;45601;-58
2023/01/22 00:34:55;;;;;;;;;50.25;42.00;;;;;1.88;59.48;102542.69;5030328;28;45410;-61
2023/01/22 00:37:20;;;;;;;;;45.75;37.25;;;;;1.87;59.82;102540.97;5031369;28;45464;-59
2023/01/22 00:39:46;;;;;;;;;44.25;38.25;;;;;1.62;59.61;102523.75;5016176;28;46506;-59
2023/01/22 00:42:11;;;;;;;;;47.50;40.50;;;;;1.57;60.35;102534.03;5033602;28;46855;-59
2023/01/22 00:44:37;;;;;;;;;48.00;39.25;;;;;1.48;60.16;102541.84;5034436;28;45523;-61
2023/01/22 00:47:02;;;;;;;;;40.00;35.50;;;;;1.53;60.52;102543.34;5034099;28;45375;-59
2023/01/22 00:49:28;;;;;;;;;43.50;35.75;;;;;1.60;61.05;102541.97;5036117;28;45346;-58
2023/01/22 00:51:53;;;;;;;;;42.25;37.00;;;;;1.55;60.37;102549.53;5033681;28;45978;-59
2023/01/22 00:54:19;;;;;;;;;50.00;42.00;;;;;1.50;60.36;102541.75;5035513;28;45274;-59
2023/01/22 00:56:44;;;;;;;;;40.25;34.75;;;;;1.44;61.02;102526.78;5031851;28;45340;-59
2023/01/22 00:59:10;;;;;;;;;47.50;39.00;;;;;1.46;61.38;102530.28;5015374;28;45539;-59
2023/01/22 01:01:38;;;;;;;;;48.75;39.25;;;;;1.41;60.46;102526.13;5015579;28;45458;-60
2023/01/22 01:04:04;;;;;;;;;53.20;41.80;;;;;1.47;60.50;102532.00;5015031;28;45449;-60
2023/01/22 01:06:29;;;;;;;;;39.75;36.25;;;;;1.47;60.80;102518.47;5014127;28;45352;-59
2023/01/22 01:08:56;;;;;;;;;46.50;36.75;;;;;1.60;60.78;102518.44;5015691;28;45630;-59
2023/01/22 01:11:22;;;;;;;;;55.50;42.50;;;;;1.66;60.52;102516.28;5014981;28;46670;-59
2023/01/22 01:13:48;;;;;;;;;48.20;42.40;;;;;1.72;60.35;102510.44;5015210;28;45350;-60
2023/01/22 01:16:14;;;;;;;;;39.40;33.60;;;;;1.62;60.66;102502.09;5030727;28;45245;-59
2023/01/22 01:18:40;;;;;;;;;54.25;42.50;;;;;1.72;60.41;102513.16;5030824;28;45539;-59
2023/01/22 01:21:06;;;;;;;;;44.50;37.25;;;;;0.98;60.58;102387.53;5030297;28;46535;-59
2023/01/22 01:23:32;;;;;;;;;47.50;41.50;;;;;1.78;60.27;102518.13;5030362;28;45395;-60
2023/01/22 01:25:57;;;;;;;;;39.50;36.25;;;;;1.74;60.44;102511.19;5015487;28;45315;-59
2023/01/22 01:28:23;;;;;;;;;50.25;40.50;;;;;1.66;59.82;102516.28;5013936;28;45604;-59
2023/01/22 01:30:49;;;;;;;;;42.40;39.40;;;;;1.61;60.27;102522.03;5015260;28;46081;-59
2023/01/22 01:33:14;;;;;;;;;45.00;38.25;;;;;1.59;61.01;102524.84;5014348;28;45390;-60
2023/01/22 01:35:40;;;;;;;;;44.00;36.50;;;;;1.69;60.34;102535.88;5030368;28;45433;-59
2023/01/22 01:38:05;;;;;;;;;52.50;44.50;;;;;1.60;60.71;102534.69;5015262;28;45361;-59
2023/01/22 01:40:31;;;;;;;;;38.75;30.75;;;;;1.46;60.40;102545.63;5013028;28;45951;-60
2023/01/22 01:42:56;;;;;;;;;45.75;41.00;;;;;1.40;61.11;102541.53;5031548;28;45489;-59
2023/01/22 01:45:28;;;;;;;;;41.75;36.25;;;;;1.37;60.77;102530.91;5024630;28;46029;-59
2023/01/22 01:48:03;;;;;;;;;47.75;38.75;;;;;1.46;61.07;102542.91;5035062;28;45365;-59
2023/01/22 01:50:28;;;;;;;;;52.75;42.00;;;;;1.49;61.13;102539.97;5034708;28;46441;-59
2023/01/22 01:52:55;;;;;;;;;44.00;39.75;;;;;1.53;60.86;102533.41;5034395;28;45362;-58
2023/01/22 01:55:24;;;;;;;;;50.20;41.80;;;;;1.36;60.56;102502.09;5032711;28;45550;-59
2023/01/22 01:57:50;;;;;;;;;42.25;39.25;;;;;1.49;60.69;102521.91;5033565;28;45408;-59
2023/01/22 02:00:16;;;;;;;;;48.00;38.75;;;;;1.37;60.63;102501.13;5034670;28;46111;-59
2023/01/22 02:02:42;;;;;;;;;43.50;36.50;;;;;1.44;60.63;102521.38;5033686;28;45848;-60
2023/01/22 02:05:08;;;;;;;;;51.00;44.25;;;;;1.17;60.42;102487.16;5021072;28;45335;-57
2023/01/22 02:07:33;;;;;;;;;35.50;32.75;;;;;1.20;60.58;102492.38;5033236;28;45462;-60
2023/01/22 02:09:59;;;;;;;;;52.00;43.25;;;;;0.76;60.71;102405.22;5017872;28;46436;-59
2023/01/22 02:12:24;;;;;;;;;52.25;41.50;;;;;1.42;60.36;102517.91;5016608;28;45859;-59
2023/01/22 02:14:50;;;;;;;;;50.00;39.25;;;;;1.21;60.81;102495.91;5033514;28;45499;-59
2023/01/22 02:17:20;;;;;;;;;42.75;38.25;;;;;1.11;60.70;102476.75;5033490;28;45390;-60
2023/01/22 02:19:45;;;;;;;;;43.50;38.75;;;;;1.27;61.54;102478.41;5016240;28;45379;-59
2023/01/22 02:22:21;;;;;;;;;48.50;41.50;;;;;1.60;61.00;102523.00;5017789;28;45379;-60
2023/01/22 02:24:47;;;;;;;;;53.00;39.50;;;;;1.58;60.18;102524.94;5018065;28;45302;-59
2023/01/22 02:27:12;;;;;;;;;50.25;41.00;;;;;1.60;60.74;102536.56;5033519;28;45680;-59
2023/01/22 02:29:38;;;;;;;;;48.25;41.25;;;;;1.53;61.12;102537.94;5017487;28;47008;-58
2023/01/22 02:32:04;;;;;;;;;43.50;28.25;;;;;1.43;60.60;102506.13;5024306;28;45949;-57
2023/01/22 02:34:29;;;;;;;;;49.00;39.00;;;;;1.57;60.75;102532.22;5024306;28;45411;-59
2023/01/22 02:36:55;;;;;;;;;44.00;39.00;;;;;1.51;60.49;102534.47;5017494;28;45449;-62
2023/01/22 02:39:20;;;;;;;;;47.50;37.25;;;;;1.61;60.86;102530.16;5016296;28;46145;-59
2023/01/22 02:41:46;;;;;;;;;50.50;41.75;;;;;1.62;60.47;102526.47;5016341;28;45364;-59
2023/01/22 02:44:11;;;;;;;;;58.00;41.00;;;;;1.64;60.27;102518.25;5017173;28;45514;-59
2023/01/22 02:46:37;;;;;;;;;52.75;43.50;;;;;1.61;59.91;102509.34;5000847;28;45540;-59
2023/01/22 02:49:03;;;;;;;;;61.75;46.50;;;;;1.64;60.08;102520.94;5032759;28;46561;-58
2023/01/22 02:51:31;;;;;;;;;48.00;38.75;;;;;1.64;59.85;102526.38;5036039;28;45408;-56
2023/01/22 02:53:56;;;;;;;;;63.25;44.25;;;;;1.60;59.83;102533.84;5036105;28;45426;-59
2023/01/22 02:56:22;;;;;;;;;49.25;41.50;;;;;1.52;60.28;102526.25;5036412;28;45578;-56
2023/01/22 02:58:47;;;;;;;;;48.00;43.25;;;;;1.40;60.26;102527.13;5035589;28;46167;-56
2023/01/22 03:01:19;;;;;;;;;34.75;22.00;;;;;1.34;60.37;102520.31;5037332;28;45322;-60
2023/01/22 03:03:50;;;;;;;;;55.00;46.00;;;;;1.30;61.04;102524.19;5069293;28;45414;-60
2023/01/22 03:06:20;;;;;;;;;47.75;41.00;;;;;1.38;61.03;102539.91;5037363;28;45610;-59
2023/01/22 03:08:49;;;;;;;;;54.25;38.50;;;;;1.37;61.22;102544.44;5035806;28;46088;-59
2023/01/22 03:11:15;;;;;;;;;46.80;39.40;;;;;0.79;60.43;102447.41;5035632;28;45386;-59
2023/01/22 03:21:52;;;;;;;;;57.00;44.75;;;;;1.27;60.71;102524.41;5036982;28;45463;-59
2023/01/22 03:24:17;;;;;;;;;49.75;44.75;;;;;1.35;60.58;102525.59;5037094;28;45316;-59
2023/01/22 03:26:43;;;;;;;;;55.50;43.00;;;;;1.45;60.78;102524.97;5036067;28;45353;-59
2023/01/22 03:29:09;;;;;;;;;58.50;44.25;;;;;1.39;60.21;102522.69;5069460;28;45546;-60
2023/01/22 03:31:34;;;;;;;;;64.00;44.00;;;;;1.43;60.82;102522.34;5036857;28;45401;-60
2023/01/22 03:34:00;;;;;;;;;54.25;44.75;;;;;1.51;60.67;102526.34;5036864;28;45370;-59
2023/01/22 03:36:25;;;;;;;;;56.50;44.50;;;;;1.62;60.92;102521.06;5035754;28;45374;-57
2023/01/22 03:38:51;;;;;;;;;41.75;37.25;;;;;1.69;60.34;102519.63;5035644;28;46390;-57
2023/01/22 03:41:16;;;;;;;;;53.00;42.75;;;;;1.71;60.40;102523.09;5036734;28;45418;-59
2023/01/22 03:43:42;;;;;;;;;60.75;45.50;;;;;1.67;59.70;102518.00;5033353;28;45423;-59
2023/01/22 03:46:09;;;;;;;;;58.00;45.25;;;;;1.62;60.18;102521.91;5016514;28;45441;-59
2023/01/22 03:48:34;;;;;;;;;63.50;46.75;;;;;1.64;59.96;102521.81;5016384;28;46468;-60
2023/01/22 03:51:11;;;;;;;;;64.75;45.50;;;;;1.62;59.87;102523.75;5016244;28;45248;-59
2023/01/22 03:53:36;;;;;;;;;60.25;46.00;;;;;1.55;59.88;102531.44;5016607;28;45402;-59
2023/01/22 03:56:04;;;;;;;;;61.50;45.00;;;;;1.54;60.36;102528.84;5016725;28;45343;-58
2023/01/22 03:58:30;;;;;;;;;62.75;45.25;;;;;1.60;59.89;102526.56;5031309;28;46348;-57
2023/01/22 04:00:58;;;;;;;;;49.25;43.75;;;;;1.70;60.25;102528.63;5016307;28;45390;-59
2023/01/22 04:03:25;;;;;;;;;62.00;46.40;;;;;1.74;59.91;102533.72;5014940;28;45500;-59
2023/01/22 04:05:50;;;;;;;;;54.00;43.50;;;;;1.70;59.76;102517.81;5016814;28;45233;-60
2023/01/22 04:08:16;;;;;;;;;59.25;44.00;;;;;1.65;60.17;102518.13;5016202;28;46545;-59
2023/01/22 04:10:41;;;;;;;;;55.50;44.25;;;;;1.61;59.79;102514.75;5016160;28;45320;-59
2023/01/22 04:13:07;;;;;;;;;44.25;34.25;;;;;1.55;59.72;102527.88;5016449;28;45355;-60
2023/01/22 04:15:33;;;;;;;;;40.75;31.50;;;;;1.52;59.58;102530.78;5016152;28;45504;-60
2023/01/22 04:17:58;;;;;;;;;44.00;33.50;;;;;1.38;60.25;102502.84;5014718;28;45484;-59
2023/01/22 04:20:24;;;;;;;;;42.50;36.75;;;;;1.51;59.82;102512.81;5014436;28;45422;-59
2023/01/22 04:22:49;;;;;;;;;49.75;40.50;;;;;1.31;59.63;102479.91;5016071;28;45403;-59
2023/01/22 04:25:15;;;;;;;;;43.25;35.25;;;;;1.47;60.16;102513.06;5016129;28;45464;-60
2023/01/22 04:27:40;;;;;;;;;43.25;41.00;;;;;1.55;60.76;102514.34;5015615;28;46810;-59
2023/01/22 04:30:06;;;;;;;;;41.25;34.00;;;;;1.49;60.14;102492.16;5015818;28;45393;-60
2023/01/22 04:32:32;;;;;;;;;47.50;38.25;;;;;1.64;60.01;102499.28;5006229;28;46287;-60
2023/01/22 04:34:57;;;;;;;;;47.50;42.75;;;;;1.60;60.19;102518.44;5032709;28;45351;-60
2023/01/22 04:37:23;;;;;;;;;42.50;37.75;;;;;1.58;60.17;102514.13;5035377;28;45955;-60
2023/01/22 04:39:48;;;;;;;;;39.00;36.00;;;;;1.53;60.97;102510.88;5035618;28;45319;-59
2023/01/22 04:42:14;;;;;;;;;49.75;41.00;;;;;1.57;60.53;102510.56;5035750;28;45545;-60
2023/01/22 04:44:39;;;;;;;;;45.50;37.50;;;;;1.57;60.52;102510.56;5035668;28;45240;-60
2023/01/22 04:47:05;;;;;;;;;44.75;36.25;;;;;1.55;60.35;102504.38;5035215;28;46910;-58
2023/01/22 04:49:30;;;;;;;;;44.50;35.25;;;;;1.42;60.14;102496.25;5035589;28;45389;-59
2023/01/22 04:51:56;;;;;;;;;52.25;39.50;;;;;1.40;60.22;102495.53;5014460;28;45415;-60
2023/01/22 04:54:21;;;;;;;;;53.00;42.25;;;;;1.38;60.76;102492.03;5015556;28;45613;-60
2023/01/22 04:56:47;;;;;;;;;45.50;38.50;;;;;1.44;60.57;102493.47;5015153;28;45578;-60
2023/01/22 04:59:12;;;;;;;;;52.75;38.75;;;;;1.28;60.97;102459.34;5030286;28;45371;-59
2023/01/22 05:01:38;;;;;;;;;55.50;35.75;;;;;1.46;60.47;102488.78;5047728;28;45341;-60
2023/01/22 05:04:03;;;;;;;;;36.75;32.75;;;;;1.44;60.00;102491.59;5002863;28;45300;-60
2023/01/22 05:06:29;;;;;;;;;38.75;33.50;;;;;1.47;60.32;102493.22;5024561;28;46598;-60
2023/01/22 05:08:55;;;;;;;;;45.25;31.75;;;;;1.42;59.99;102485.44;5034933;28;45523;-60
2023/01/22 05:11:20;;;;;;;;;45.00;37.25;;;;;1.41;60.01;102486.41;5035292;28;45465;-61
2023/01/22 05:13:46;;;;;;;;;35.75;31.75;;;;;1.45;60.24;102487.91;5035650;28;45326;-60
2023/01/22 05:16:11;;;;;;;;;44.50;38.00;;;;;1.43;59.99;102479.06;5035198;28;45975;-56
2023/01/22 05:18:37;;;;;;;;;31.50;27.25;;;;;1.46;60.18;102486.09;5050667;28;45322;-61
2023/01/22 05:21:02;;;;;;;;;35.00;26.00;;;;;1.42;60.38;102471.91;5034965;28;45357;-60
2023/01/22 05:23:28;;;;;;;;;38.50;28.00;;;;;1.41;59.68;102474.72;5066982;28;45266;-60
2023/01/22 05:25:53;;;;;;;;;45.50;33.50;;;;;1.44;60.22;102477.22;5014855;28;46642;-60
2023/01/22 05:28:19;;;;;;;;;44.25;33.00;;;;;1.38;60.01;102474.94;5014109;28;45319;-60
2023/01/22 05:30:46;;;;;;;;;37.75;29.75;;;;;1.42;60.35;102471.03;5015151;28;45213;-59
2023/01/22 05:33:12;;;;;;;;;42.50;30.50;;;;;1.46;60.41;102473.44;5028293;28;45525;-58
2023/01/22 05:35:37;;;;;;;;;35.00;30.50;;;;;1.52;60.03;102482.06;5025188;28;48227;-60
2023/01/22 05:38:03;;;;;;;;;42.50;36.75;;;;;1.50;60.55;102482.19;5031838;28;45464;-60
2023/01/22 05:40:28;;;;;;;;;33.25;30.00;;;;;1.49;59.77;102475.03;5034013;28;45367;-60
2023/01/22 05:42:54;;;;;;;;;40.50;35.25;;;;;1.47;60.32;102475.16;5034611;28;45329;-55
2023/01/22 05:45:20;;;;;;;;;32.75;30.75;;;;;1.42;60.60;102479.16;5034439;28;46024;-59
2023/01/22 05:47:51;;;;;;;;;37.50;34.25;;;;;1.49;60.46;102478.63;5035154;28;45424;-59
2023/01/22 05:50:16;;;;;;;;;41.40;34.60;;;;;1.54;60.55;102474.72;5034829;28;45337;-59
2023/01/22 05:52:42;;;;;;;;;42.50;30.25;;;;;1.41;60.65;102437.72;5035284;28;45646;-57
2023/01/22 05:55:07;;;;;;;;;35.50;32.75;;;;;1.56;60.80;102464.66;5033134;28;45748;-59
2023/01/22 05:57:34;;;;;;;;;42.75;39.00;;;;;1.61;60.28;102460.63;5034111;28;45788;-60
2023/01/22 06:00:00;;;;;;;;;44.80;36.60;;;;;1.62;60.51;102469.63;5029729;28;45679;-59
2023/01/22 06:02:25;;;;;;;;;38.75;34.00;;;;;1.53;60.50;102448.59;5030003;28;45402;-60
2023/01/22 06:04:51;;;;;;;;;44.00;34.75;;;;;1.71;60.02;102471.66;5030231;28;45622;-59
2023/01/22 06:07:16;;;;;;;;;46.75;36.75;;;;;1.38;60.33;102410.00;5014305;28;45366;-60
2023/01/22 06:09:42;;;;;;;;;43.25;36.00;;;;;1.70;60.73;102466.38;5029899;28;45331;-60
2023/01/22 06:12:07;;;;;;;;;35.00;29.00;;;;;1.51;60.52;102448.75;5030045;28;45493;-59
2023/01/22 06:14:33;;;;;;;;;40.50;28.00;;;;;1.70;60.43;102477.19;5013011;28;45725;-60
2023/01/22 06:17:00;;;;;;;;;53.75;39.75;;;;;1.70;60.49;102490.75;5029771;28;45322;-60
2023/01/22 06:19:26;;;;;;;;;44.80;31.80;;;;;1.71;60.75;102487.91;5014744;28;45287;-59
2023/01/22 06:21:51;;;;;;;;;35.75;31.75;;;;;1.71;60.56;102482.47;5013617;28;45297;-59
2023/01/22 06:24:17;;;;;;;;;43.75;35.25;;;;;1.75;60.54;102478.59;5012930;28;47251;-59
2023/01/22 06:26:42;;;;;;;;;41.25;38.25;;;;;1.83;60.66;102485.28;5029609;28;45471;-59
2023/01/22 06:29:07;;;;;;;;;41.25;30.50;;;;;1.71;60.50;102443.72;5014681;28;45320;-60
2023/01/22 06:31:33;;;;;;;;;44.00;36.50;;;;;1.88;60.67;102473.13;5015032;28;45367;-60
2023/01/22 06:33:59;;;;;;;;;38.25;32.50;;;;;1.85;60.53;102465.25;5034319;28;46335;-60
2023/01/22 06:36:24;;;;;;;;;42.25;35.75;;;;;1.79;60.43;102462.09;5034063;28;45554;-60
2023/01/22 06:38:49;;;;;;;;;44.75;36.00;;;;;1.79;60.93;102462.97;5034376;28;45474;-60
2023/01/22 06:41:15;;;;;;;;;38.50;31.50;;;;;1.55;60.67;102430.44;5034000;28;45708;-60
2023/01/22 06:43:40;;;;;;;;;44.75;33.50;;;;;1.85;60.85;102477.91;5013413;28;45662;-60
2023/01/22 06:46:06;;;;;;;;;45.50;33.25;;;;;1.84;60.93;102481.59;5014045;28;45318;-60
2023/01/22 06:48:31;;;;;;;;;41.25;37.00;;;;;1.87;60.59;102475.97;5014258;28;45409;-60
2023/01/22 06:50:58;;;;;;;;;39.50;37.75;;;;;1.86;61.02;102475.09;5017726;28;45442;-59
2023/01/22 06:53:24;;;;;;;;;34.00;29.20;;;;;1.85;61.15;102488.75;5015843;28;45363;-60
2023/01/22 06:55:50;;;;;;;;;36.20;33.40;;;;;1.83;60.76;102488.00;5017019;28;45415;-58
2023/01/22 06:58:15;;;;;;;;;46.00;33.75;;;;;1.81;61.37;102487.25;5032844;28;45429;-59
2023/01/22 07:00:41;;;;;;;;;47.25;38.25;;;;;1.82;60.82;102486.28;5017292;28;45341;-57
2023/01/22 07:03:06;;;;;;;;;38.25;32.50;;;;;1.65;61.45;102463.13;5017402;28;45809;-59
2023/01/22 07:05:33;;;;;;;;;43.50;38.50;;;;;1.81;61.45;102496.22;4994789;28;45886;-53
2023/01/22 07:07:58;;;;;;;;;44.60;36.20;;;;;1.78;61.47;102498.28;5035609;28;45411;-57
2023/01/22 07:10:24;;;;;;;;;41.25;35.75;;;;;1.75;61.81;102500.25;5032014;28;45233;-56
2023/01/22 07:12:53;;;;;;;;;37.00;30.25;;;;;1.71;61.84;102497.88;5035468;28;46692;-58
2023/01/22 07:15:18;;;;;;;;;43.60;29.20;;;;;1.74;62.00;102503.06;5035707;28;45396;-59
2023/01/22 07:17:49;;;;;;;;;42.50;36.50;;;;;1.72;62.88;102505.88;5021145;28;45335;-59
2023/01/22 07:20:15;;;;;;;;;46.00;35.75;;;;;1.81;61.80;102509.75;5017424;28;45417;-60
2023/01/22 07:22:41;;;;;;;;;54.00;36.25;;;;;1.78;62.50;102506.41;5015225;28;48175;-60
2023/01/22 07:25:07;;;;;;;;;50.75;35.50;;;;;1.72;62.51;102514.00;5016999;28;45378;-58
2023/01/22 07:27:33;;;;;;;;;33.75;28.50;;;;;1.14;62.63;102416.19;5016703;28;45267;-59
2023/01/22 07:29:59;;;;;;;;;46.00;35.75;;;;;1.71;62.50;102512.25;5016935;28;45389;-58
2023/01/22 07:32:25;;;;;;;;;41.00;34.00;;;;;1.80;62.52;102524.28;5019426;28;46722;-60
2023/01/22 07:34:50;;;;;;;;;37.00;32.25;;;;;1.73;62.84;102532.00;5035103;28;45387;-59
2023/01/22 07:37:16;;;;;;;;;38.25;34.00;;;;;1.74;62.61;102533.72;5052311;28;45340;-59
2023/01/22 07:39:41;;;;;;;;;44.50;32.25;;;;;1.75;63.00;102538.16;5036909;28;45606;-59
2023/01/22 07:42:07;;;;;;;;;41.00;30.25;;;;;1.77;63.40;102535.34;5036335;28;46573;-57
2023/01/22 07:44:32;;;;;;;;;43.75;31.00;;;;;1.75;63.38;102542.69;5036144;28;45449;-60
2023/01/22 07:46:58;;;;;;;;;44.75;32.50;;;;;1.76;63.17;102539.88;5028618;28;45311;-59
2023/01/22 07:49:23;;;;;;;;;39.00;31.25;;;;;1.79;63.02;102532.50;5017290;28;45404;-60
2023/01/22 07:51:49;;;;;;;;;37.25;30.50;;;;;1.83;63.60;102536.75;5016423;28;45542;-59
2023/01/22 07:54:14;;;;;;;;;43.75;36.75;;;;;1.87;62.85;102544.53;5031704;28;45631;-59
2023/01/22 07:56:40;;;;;;;;;39.25;34.75;;;;;1.87;62.92;102530.97;5016509;28;45465;-60
2023/01/22 07:59:06;;;;;;;;;42.00;37.50;;;;;1.85;62.84;102538.38;5017107;28;45331;-60
2023/01/22 08:01:31;;;;;;;;;39.00;27.00;;;;;1.88;62.48;102545.41;5015801;28;46068;-59
2023/01/22 08:03:57;;;;;;;;;33.50;29.25;;;;;1.86;63.01;102540.09;5016385;28;45505;-59
2023/01/22 08:06:23;;;;;;;;;31.75;26.50;;;;;1.61;62.83;102505.78;5041152;28;45402;-57
2023/01/22 08:08:48;;;;;;;;;37.25;29.50;;;;;1.71;63.01;102524.94;5036542;28;45475;-59
2023/01/22 08:11:14;;;;;;;;;34.50;28.25;;;;;1.60;62.90;102507.63;5049572;28;45905;-61
2023/01/22 08:13:39;;;;;;;;;40.25;31.00;;;;;1.75;63.29;102531.88;5016127;28;45409;-60
2023/01/22 08:16:05;;;;;;;;;32.00;28.25;;;;;1.88;62.68;102550.81;5016334;28;45330;-58
2023/01/22 08:18:31;;;;;;;;;32.00;27.75;;;;;1.90;63.08;102559.69;5032054;28;45544;-59
2023/01/22 08:21:00;;;;;;;;;40.00;34.50;;;;;1.86;63.32;102555.47;5016266;28;45853;-59
2023/01/22 08:23:25;;;;;;;;;31.40;29.00;;;;;1.90;63.20;102562.41;5016097;28;45468;-59
2023/01/22 08:25:51;;;;;;;;;42.75;33.00;;;;;1.91;63.28;102560.56;5016229;28;45284;-60
2023/01/22 08:28:16;;;;;;;;;47.75;27.75;;;;;1.83;63.35;102551.16;5016562;28;45482;-59
2023/01/22 08:30:42;;;;;;;;;41.50;38.50;;;;;1.92;62.99;102568.56;5014833;28;45464;-60
2023/01/22 08:33:07;;;;;;;;;38.25;30.50;;;;;1.78;63.03;102549.72;5024090;28;45526;-59
2023/01/22 08:35:33;;;;;;;;;37.25;30.50;;;;;1.92;62.68;102568.56;5036186;28;45345;-59
2023/01/22 08:37:59;;;;;;;;;34.25;26.75;;;;;1.69;63.19;102545.84;5035668;28;45450;-59
2023/01/22 08:40:25;;;;;;;;;35.60;29.40;;;;;1.93;62.84;102573.03;5034605;28;46511;-59
2023/01/22 08:42:51;;;;;;;;;33.25;26.25;;;;;1.96;62.49;102572.78;5035719;28;45345;-59
2023/01/22 08:45:17;;;;;;;;;34.40;32.60;;;;;1.97;62.91;102577.22;5035566;28;45364;-61
2023/01/22 08:47:42;;;;;;;;;34.75;28.25;;;;;1.96;62.84;102571.91;5035694;28;45320;-61
2023/01/22 08:50:08;;;;;;;;;34.75;31.25;;;;;1.98;62.71;102576.25;5035777;28;46434;-58
2023/01/22 08:52:34;;;;;;;;;35.20;30.00;;;;;1.97;62.65;102568.25;5035063;28;45231;-60
2023/01/22 08:55:00;;;;;;;;;26.75;21.75;;;;;1.65;63.00;102534.34;5020364;28;45568;-55
2023/01/22 08:57:25;;;;;;;;;34.00;26.50;;;;;1.23;62.48;102475.06;4991967;28;45938;-57
2023/01/22 08:59:51;;;;;;;;;38.00;29.50;;;;;1.75;62.92;102543.56;5024441;28;46136;-59
2023/01/22 09:02:16;;;;;;;;;41.25;33.50;;;;;2.01;62.81;102589.59;5035099;28;45298;-59
2023/01/22 09:04:41;;;;;;;;;38.00;32.00;;;;;2.07;62.82;102590.13;5034057;28;45391;-60
2023/01/22 09:07:09;;;;;;;;;28.25;24.25;;;;;1.99;62.21;102587.97;5035834;28;45361;-60
2023/01/22 09:09:34;;;;;;;;;31.25;29.00;;;;;1.98;62.41;102581.66;5033744;28;46921;-60
2023/01/22 09:12:00;;;;;;;;;35.25;32.25;;;;;2.07;62.64;102585.56;5033585;28;45422;-60
2023/01/22 09:14:25;;;;;;;;;33.50;28.50;;;;;2.09;62.23;102580.03;5033442;28;45755;-60
2023/01/22 09:16:51;;;;;;;;;30.00;26.25;;;;;2.01;61.83;102569.75;5034408;28;45600;-60
2023/01/22 09:19:17;;;;;;;;;32.25;25.50;;;;;2.04;62.26;102577.69;5033976;28;45556;-61
2023/01/22 09:21:42;;;;;;;;;34.60;30.40;;;;;2.01;62.66;102586.88;5033949;28;45384;-60
2023/01/22 09:24:08;;;;;;;;;34.25;27.75;;;;;2.01;62.65;102575.16;5035437;28;45362;-59
2023/01/22 09:26:35;;;;;;;;;33.25;26.00;;;;;1.73;62.26;102528.41;5035067;28;45635;-59
2023/01/22 09:29:03;;;;;;;;;33.75;29.50;;;;;2.01;62.35;102581.47;5033731;28;46513;-59
2023/01/22 09:31:28;;;;;;;;;26.60;24.80;;;;;1.75;62.55;102549.00;5034923;28;45567;-60
2023/01/22 09:33:57;;;;;;;;;42.00;34.00;;;;;2.06;62.38;102589.25;5034934;28;45443;-60
2023/01/22 09:36:22;;;;;;;;;31.25;25.50;;;;;1.89;62.82;102548.00;5035487;28;45297;-59
2023/01/22 09:38:48;;;;;;;;;39.75;27.75;;;;;2.23;62.49;102596.16;5034500;28;45535;-59
2023/01/22 09:41:24;;;;;;;;;36.50;30.50;;;;;2.22;61.88;102597.16;5035116;28;45500;-58
2023/01/22 09:43:56;;;;;;;;;27.40;26.80;;;;;2.19;61.35;102594.63;5034688;28;45582;-59
2023/01/22 09:46:33;;;;;;;;;30.50;23.25;;;;;2.25;61.18;102605.03;5034927;28;45459;-60
2023/01/22 09:49:20;;;;;;;;;37.40;27.00;;;;;2.22;62.19;102602.56;5034662;28;45448;-60
2023/01/22 09:51:56;;;;;;;;;24.20;24.20;;;;;2.24;62.03;102597.88;5034739;28;46291;-60
2023/01/22 09:54:22;;;;;;;;;28.80;24.40;;;;;2.25;62.11;102593.34;5033524;28;45291;-62
2023/01/22 09:56:49;;;;;;;;;25.50;23.50;;;;;2.20;61.92;102590.97;5050197;28;45289;-62
2023/01/22 09:59:27;;;;;;;;;30.75;26.50;;;;;2.34;62.06;102611.63;5028195;28;48004;-60
2023/01/22 10:01:55;;;;;;;;;32.80;26.80;;;;;2.00;61.32;102577.03;5047467;28;45878;-60
2023/01/22 10:04:25;;;;;;;;;38.20;30.60;;;;;2.23;62.22;102607.00;5031433;28;45450;-60
2023/01/22 10:06:52;;;;;;;;;33.00;28.00;;;;;2.25;62.09;102610.47;5034757;28;45390;-60
2023/01/22 10:09:18;;;;;;;;;32.20;26.80;;;;;2.19;62.16;102601.91;5034126;28;45704;-60
2023/01/22 10:11:50;;;;;;;;;36.60;29.40;;;;;1.90;62.42;102559.69;5066754;28;45434;-61
2023/01/22 10:14:16;;;;;;;;;47.60;30.80;;;;;2.24;62.27;102619.56;5038889;28;45542;-59
2023/01/22 10:16:44;;;;;;;;;40.00;29.00;;;;;2.25;61.75;102615.03;5014385;28;45670;-62
2023/01/22 10:19:31;;;;;;;;;30.20;26.20;;;;;2.27;62.41;102619.38;5029864;28;45686;-60
2023/01/22 10:22:03;;;;;;;;;32.60;25.60;;;;;1.99;62.48;102599.69;5030248;28;45332;-58
2023/01/22 10:24:29;;;;;;;;;26.60;22.00;;;;;2.00;62.96;102612.25;5033850;28;45464;-64
2023/01/22 10:26:57;;;;;;;;;32.00;29.50;;;;;2.08;62.89;102606.25;5018481;28;45454;-60
2023/01/22 10:29:28;;;;;;;;;43.25;30.75;;;;;2.16;62.97;102608.41;5036531;28;47082;-59
2023/01/22 10:32:01;;;;;;;;;32.40;28.00;;;;;2.13;62.79;102582.41;5034786;28;45386;-60
2023/01/22 10:34:33;;;;;;;;;24.80;22.80;;;;;2.16;62.60;102593.03;5035261;28;45438;-61
2023/01/22 10:37:02;;;;;;;;;35.25;30.00;;;;;1.95;63.23;102562.94;5021225;28;45716;-61
2023/01/22 10:39:36;;;;;;;;;32.80;26.00;;;;;2.14;62.78;102600.41;5015135;28;46454;-61
2023/01/22 10:42:02;;;;;;;;;34.00;26.00;;;;;2.17;62.86;102600.19;5039961;28;45393;-62
2023/01/22 10:44:28;;;;;;;;;30.75;26.50;;;;;2.17;62.15;102602.03;5034011;28;45407;-62
2023/01/22 10:46:54;;;;;;;;;28.25;25.00;;;;;2.18;62.75;102598.34;5034589;28;45323;-61
2023/01/22 10:49:20;;;;;;;;;26.20;25.00;;;;;2.19;63.09;102585.66;5034674;28;48449;-61
2023/01/22 10:52:05;;;;;;;;;24.80;22.20;;;;;2.26;62.89;102586.94;5034729;28;45831;-62
2023/01/22 10:54:33;;;;;;;;;29.40;24.80;;;;;2.23;62.76;102585.31;5034812;28;45555;-64
2023/01/22 10:57:04;;;;;;;;;30.00;24.75;;;;;2.15;63.07;102582.31;5033514;28;45607;-61
2023/01/22 10:59:29;;;;;;;;;31.80;26.40;;;;;2.15;62.78;102583.16;5055958;28;45824;-61
2023/01/22 11:02:20;;;;;;;;;29.75;23.50;;;;;1.99;62.86;102563.59;5025513;28;45714;-62
2023/01/22 11:04:46;;;;;;;;;28.60;22.80;;;;;2.24;62.48;102594.34;5034641;28;45357;-62
2023/01/22 11:07:20;;;;;;;;;34.50;26.75;;;;;2.26;62.78;102595.06;5035540;28;45625;-62
2023/01/22 11:09:50;;;;;;;;;30.20;25.00;;;;;2.31;62.39;102595.63;5016872;28;47767;-62
2023/01/22 11:12:30;;;;;;;;;27.60;24.20;;;;;2.10;62.67;102547.44;5067966;28;45436;-62
2023/01/22 11:15:06;;;;;;;;;32.60;28.40;;;;;2.36;62.56;102581.72;5034267;28;45363;-62
2023/01/22 11:17:39;;;;;;;;;29.00;20.25;;;;;2.25;62.24;102547.28;5034542;28;45630;-61
2023/01/22 11:20:15;;;;;;;;;39.00;29.50;;;;;2.43;62.50;102569.44;5033258;28;46487;-61
2023/01/22 11:22:42;;;;;;;;;26.60;22.60;;;;;2.44;61.91;102571.19;5041479;28;45450;-63